Wetterdaten: aktuell Montag, 25.10.2021 00:05
Datum Zeit Temp 2m Wasser SB Wasser NSB Temp 2m ob Temp 10cm Regen Wind mittel Richtung Richtung Taupunkt Windben
25.10.2021 00:05 7,8 C 9,9 C 9,8 C 8,3 C 7,5 C 0,0 l/m 3,5 km/h N 0 2,5 C 3,4 km/h
25.10.2021 00:00 7,9 C 9,9 C 9,8 C 8,4 C 7,6 C 0,0 l/m 3,2 km/h S-SW 202 2,6 C 5,1 km/h
24.10.2021 23:55 7,9 C 9,9 C 9,8 C 8,4 C 7,6 C 0,0 l/m 3,2 km/h S-SO 157 2,6 C 7,4 km/h
24.10.2021 23:50 7,9 C 9,9 C 9,8 C 8,5 C 7,7 C 0,0 l/m 3,7 km/h NO 45 2,6 C 3,7 km/h
24.10.2021 23:45 8,0 C 9,9 C 9,8 C 8,6 C 7,7 C 0,0 l/m 5,1 km/h W 270 2,7 C 10,3 km/h
24.10.2021 23:40 8,0 C 9,9 C 9,8 C 8,5 C 7,6 C 0,0 l/m 5,3 km/h W-SW 247 2,7 C 16,3 km/h
24.10.2021 23:35 7,9 C 9,9 C 9,8 C 8,5 C 7,6 C 0,0 l/m 5,0 km/h SO 135 2,6 C 4,8 km/h
24.10.2021 23:30 7,9 C 9,9 C 9,8 C 8,4 C 7,6 C 0,0 l/m 5,3 km/h S-SO 157 2,6 C 8,5 km/h
24.10.2021 23:25 7,9 C 9,9 C 9,8 C 8,5 C 7,6 C 0,0 l/m 5,6 km/h W 270 2,6 C 7,4 km/h
24.10.2021 23:20 7,8 C 10,0 C 9,8 C 8,4 C 7,6 C 0,0 l/m 5,0 km/h S-SW 202 2,5 C 9,3 km/h
24.10.2021 23:15 7,8 C 10,0 C 9,8 C 8,5 C 7,6 C 0,0 l/m 6,0 km/h W-SW 247 2,5 C 14,3 km/h
24.10.2021 23:10 7,7 C 10,0 C 9,8 C 8,4 C 7,4 C 0,0 l/m 5,8 km/h SW 225 2,4 C 7,1 km/h
24.10.2021 23:05 7,6 C 10,0 C 9,9 C 8,3 C 7,3 C 0,0 l/m 4,0 km/h S-SO 157 2,5 C 8,2 km/h
24.10.2021 23:00 7,6 C 10,0 C 9,9 C 8,3 C 7,2 C 0,0 l/m 3,2 km/h S-SW 202 2,7 C 6,3 km/h
24.10.2021 22:55 7,5 C 10,0 C 9,9 C 8,3 C 7,2 C 0,0 l/m 4,7 km/h O-NO 67 2,6 C 3,5 km/h
24.10.2021 22:50 7,3 C 10,1 C 9,9 C 8,2 C 7,1 C 0,0 l/m 5,3 km/h S-SW 202 2,4 C 9,2 km/h
24.10.2021 22:45 7,1 C 10,1 C 9,9 C 7,8 C 6,9 C 0,0 l/m 3,2 km/h S-SW 202 2,4 C 4,7 km/h
24.10.2021 22:40 6,8 C 10,1 C 9,9 C 7,6 C 6,5 C 0,0 l/m 1,9 km/h NW 315 2,1 C 6,8 km/h
24.10.2021 22:35 6,7 C 10,1 C 9,9 C 7,1 C 6,2 C 0,0 l/m 1,0 km/h O 90 1,8 C 2,1 km/h
24.10.2021 22:30 6,7 C 10,1 C 9,9 C 7,1 C 6,2 C 0,0 l/m 1,1 km/h S-SO 157 1,8 C 0,0 km/h
24.10.2021 22:25 6,7 C 10,1 C 9,9 C 7,2 C 6,3 C 0,0 l/m 2,3 km/h S-SO 157 1,8 C 2,4 km/h
24.10.2021 22:20 6,8 C 10,1 C 9,9 C 7,2 C 6,3 C 0,0 l/m 2,7 km/h NO 45 1,7 C 3,9 km/h
24.10.2021 22:15 7,0 C 10,1 C 9,9 C 7,4 C 6,5 C 0,0 l/m 2,7 km/h S-SW 202 2,1 C 3,1 km/h
24.10.2021 22:10 7,0 C 10,1 C 9,9 C 7,5 C 6,6 C 0,0 l/m 2,9 km/h S-SW 202 1,9 C 1,9 km/h
24.10.2021 22:05 7,1 C 10,1 C 10,0 C 7,5 C 6,6 C 0,0 l/m 2,9 km/h S-SW 202 1,8 C 4,3 km/h
24.10.2021 22:00 7,2 C 10,2 C 10,0 C 7,6 C 6,6 C 0,0 l/m 1,9 km/h S-SW 202 1,9 C 4,0 km/h
_ Min-Zeit 09:10 09:00 09:00 09:15 09:15 - 01:00 - - 09:10 01:00
Minimum _ -1,0 C 8,1 C 7,8 C -1,4 C -1,7 C - 0,0 km/h - - -2,4 C 0,0 km/h
_ Max-Zeit 13:50 18:50 18:10 14:35 15:05 10:20 14:10 - - 12:25 11:10
Maximum _ 12,2 C 10,5 C 10,4 C 12,9 C 11,7 C 0,7 l/m 6,8 km/h
SW
- - 5,3 C 17,2 km/h
NO
Durchschnitt _ 5,7 C 9,4 C 9,2 C 5,9 C 5,1 C #0,7 l/m 2,3 km/h SW - 1,5 C 3,1 km/h